Time;durP1;ratioP1;P1;durP2;ratioP2;P2;SDS_P1;SDS_P2;PMS_P1;PMS_P2;Temp;Humidity;BMP_temperature;BMP_pressure;BME280_temperature;BME280_humidity;BME280_pressure;Samples;Min_cycle;Max_cycle;Signal;HPM_P1;HPM_P2
2021/11/04 00:00:25;;;;;;;36.90;21.42;;;8.30;99.90;;;;;;4964098;28;20090;-62
2021/11/04 00:02:51;;;;;;;37.50;22.50;;;8.30;99.90;;;;;;4959630;28;20023;-62
2021/11/04 00:05:17;;;;;;;38.05;23.35;;;8.30;99.90;;;;;;4962681;28;20135;-61
2021/11/04 00:07:45;;;;;;;44.25;24.85;;;8.30;99.90;;;;;;4963421;28;20031;-62
2021/11/04 00:10:12;;;;;;;44.85;24.00;;;8.30;99.90;;;;;;4963421;28;20378;-61
2021/11/04 00:12:37;;;;;;;46.38;27.80;;;8.30;99.90;;;;;;4963531;28;20027;-61
2021/11/04 00:15:04;;;;;;;42.38;25.83;;;8.20;99.90;;;;;;4963375;28;20038;-62
2021/11/04 00:17:29;;;;;;;43.08;23.90;;;8.20;99.90;;;;;;4953646;28;20034;-62
2021/11/04 00:19:55;;;;;;;40.47;22.75;;;8.20;99.90;;;;;;4962954;28;20027;-61
2021/11/04 00:22:21;;;;;;;36.83;21.90;;;8.20;99.90;;;;;;4962083;28;20030;-62
2021/11/04 00:24:46;;;;;;;36.15;21.92;;;8.20;99.90;;;;;;4969107;28;20166;-63
2021/11/04 00:27:12;;;;;;;36.53;20.30;;;8.20;99.90;;;;;;4968065;28;20110;-64
2021/11/04 00:29:37;;;;;;;36.08;20.63;;;8.20;99.90;;;;;;4950727;28;20599;-64
2021/11/04 00:32:03;;;;;;;34.75;19.85;;;8.20;99.90;;;;;;4957034;28;20023;-64
2021/11/04 00:34:29;;;;;;;34.72;20.27;;;8.20;99.90;;;;;;4956675;28;20038;-64
2021/11/04 00:36:55;;;;;;;35.60;19.90;;;8.10;99.90;;;;;;4967057;28;20031;-64
2021/11/04 00:39:21;;;;;;;37.25;20.15;;;8.10;99.90;;;;;;4967996;28;20035;-62
2021/11/04 00:41:46;;;;;;;36.50;20.60;;;8.10;99.90;;;;;;4968422;28;20114;-62
2021/11/04 00:44:12;;;;;;;38.88;21.20;;;8.10;99.90;;;;;;4966648;28;20479;-62
2021/11/04 00:46:38;;;;;;;34.55;19.38;;;8.10;99.90;;;;;;4966813;28;20153;-62
2021/11/04 00:49:03;;;;;;;45.90;24.42;;;8.10;99.90;;;;;;4967922;28;20082;-62
2021/11/04 00:51:29;;;;;;;54.10;28.30;;;8.00;99.90;;;;;;4968076;28;20035;-62
2021/11/04 00:53:55;;;;;;;50.75;27.30;;;8.10;99.90;;;;;;4967941;28;20031;-61
2021/11/04 00:56:21;;;;;;;44.67;25.17;;;8.10;99.90;;;;;;4965038;28;20107;-62
2021/11/04 00:58:49;;;;;;;41.22;23.63;;;8.00;99.90;;;;;;4969944;28;20452;-62
2021/11/04 01:01:22;;;;;;;37.00;20.90;;;8.00;99.90;;;;;;4972203;28;20033;-62
2021/11/04 01:03:50;;;;;;;34.65;19.13;;;8.00;99.90;;;;;;4970153;28;20051;-62
2021/11/04 01:06:16;;;;;;;44.10;24.23;;;8.00;99.90;;;;;;4969441;28;20082;-61
2021/11/04 01:08:42;;;;;;;41.72;22.33;;;8.00;99.90;;;;;;4966120;28;20090;-62
2021/11/04 01:11:08;;;;;;;41.53;21.77;;;8.00;99.90;;;;;;4969857;28;20026;-61
2021/11/04 01:13:35;;;;;;;38.15;18.75;;;7.90;99.90;;;;;;4956618;28;20042;-62
2021/11/04 01:16:01;;;;;;;31.77;18.65;;;7.90;99.90;;;;;;4967796;28;20065;-61
2021/11/04 01:18:26;;;;;;;34.58;18.15;;;7.90;99.90;;;;;;4970990;28;20051;-62
2021/11/04 01:20:53;;;;;;;31.17;17.15;;;7.90;99.90;;;;;;4957904;28;20030;-61
2021/11/04 01:23:19;;;;;;;31.80;17.10;;;7.90;99.90;;;;;;4971249;28;20082;-61
2021/11/04 01:25:44;;;;;;;31.27;16.48;;;7.80;99.90;;;;;;4968711;28;20030;-61
2021/11/04 01:28:10;;;;;;;32.25;17.13;;;7.80;99.90;;;;;;4967054;28;20042;-61
2021/11/04 01:30:37;;;;;;;29.85;17.02;;;7.80;99.90;;;;;;4966388;28;20533;-62
2021/11/04 01:33:03;;;;;;;35.88;18.70;;;7.80;99.90;;;;;;4967057;28;20026;-61
2021/11/04 01:35:31;;;;;;;31.77;17.75;;;7.70;99.90;;;;;;4966442;28;20061;-61
2021/11/04 01:38:00;;;;;;;28.67;16.83;;;7.80;99.90;;;;;;4968725;28;20030;-62
2021/11/04 01:40:26;;;;;;;33.50;16.00;;;7.70;99.90;;;;;;4957104;28;20037;-61
2021/11/04 01:42:52;;;;;;;27.38;15.43;;;7.70;99.90;;;;;;4956881;28;20035;-62
2021/11/04 01:45:17;;;;;;;22.88;14.57;;;7.70;99.90;;;;;;4964752;28;20065;-61
2021/11/04 01:47:46;;;;;;;29.63;16.67;;;7.70;99.90;;;;;;4964376;28;20031;-61
2021/11/04 01:50:13;;;;;;;25.88;14.93;;;7.60;99.90;;;;;;4964165;28;20026;-62
2021/11/04 01:52:38;;;;;;;23.52;14.82;;;7.60;99.90;;;;;;4963853;28;20031;-62
2021/11/04 01:55:04;;;;;;;22.45;15.52;;;7.60;99.90;;;;;;4952103;28;20030;-61
2021/11/04 01:57:30;;;;;;;30.50;14.70;;;7.60;99.90;;;;;;4967210;28;20027;-62
2021/11/04 01:59:55;;;;;;;23.58;13.80;;;7.50;99.90;;;;;;4970898;28;20034;-61
2021/11/04 02:02:25;;;;;;;28.23;14.95;;;7.50;99.90;;;;;;4973572;28;20030;-61
2021/11/04 02:04:58;;;;;;;;;;;7.50;99.90;;;;;;4963860;28;20069;-62
2021/11/04 02:07:35;;;;;;;22.88;12.55;;;7.40;99.90;;;;;;4974415;28;19910;-62
2021/11/04 02:10:12;;;;;;;24.35;13.57;;;7.40;99.90;;;;;;4981898;28;20101;-61
2021/11/04 02:12:47;;;;;;;26.85;13.82;;;7.40;99.90;;;;;;4972987;28;20027;-62
2021/11/04 02:15:14;;;;;;;20.27;13.10;;;7.40;99.90;;;;;;4977791;28;20557;-61
2021/11/04 02:17:43;;;;;;;26.83;14.75;;;7.40;99.90;;;;;;4959852;28;20031;-61
2021/11/04 02:20:10;;;;;;;31.00;14.95;;;7.40;99.90;;;;;;4973346;28;20059;-61
2021/11/04 02:22:58;;;;;;;20.42;13.13;;;7.30;99.90;;;;;;4976652;28;20027;-62
2021/11/04 02:25:29;;;;;;;20.15;13.35;;;7.30;99.90;;;;;;4976941;28;20019;-61
2021/11/04 02:27:59;;;;;;;23.48;13.60;;;7.30;99.90;;;;;;4975814;28;20037;-61
2021/11/04 02:30:27;;;;;;;26.45;13.15;;;7.30;99.90;;;;;;4975720;28;20378;-61
2021/11/04 02:32:55;;;;;;;24.33;14.88;;;7.30;99.90;;;;;;4972811;28;20034;-61
2021/11/04 02:35:21;;;;;;;29.73;16.58;;;7.30;99.90;;;;;;4975217;28;20038;-61
2021/11/04 02:37:50;;;;;;;27.42;15.38;;;7.30;99.90;;;;;;4974702;28;20511;-62
2021/11/04 02:40:16;;;;;;;27.52;17.42;;;7.30;99.90;;;;;;4972738;28;20030;-61
2021/11/04 02:42:42;;;;;;;25.17;15.35;;;7.30;99.90;;;;;;4974868;28;20056;-62
2021/11/04 02:45:09;;;;;;;22.98;14.80;;;7.30;99.90;;;;;;4972347;28;20086;-62
2021/11/04 02:47:36;;;;;;;24.02;14.23;;;7.30;99.90;;;;;;4961104;28;20491;-62
2021/11/04 02:50:04;;;;;;;26.08;15.68;;;7.30;99.90;;;;;;4974833;28;20484;-61
2021/11/04 02:52:29;;;;;;;27.08;15.35;;;7.30;99.90;;;;;;4973529;28;20057;-61
2021/11/04 02:54:59;;;;;;;23.63;14.63;;;7.20;99.90;;;;;;4972773;28;20534;-62
2021/11/04 02:57:25;;;;;;;25.02;14.38;;;7.20;99.90;;;;;;4994266;28;20053;-61
2021/11/04 02:59:51;;;;;;;23.67;15.15;;;7.20;99.90;;;;;;4965496;28;20042;-62
2021/11/04 03:02:17;;;;;;;24.23;15.38;;;7.20;99.90;;;;;;4972922;28;20038;-61
2021/11/04 03:04:42;;;;;;;23.30;14.57;;;7.20;99.90;;;;;;4967083;28;20479;-61
2021/11/04 03:07:08;;;;;;;21.42;13.75;;;7.20;99.90;;;;;;4972254;28;20026;-62
2021/11/04 03:09:34;;;;;;;21.33;14.65;;;7.20;99.90;;;;;;4972409;28;20108;-61
2021/11/04 03:12:00;;;;;;;20.73;13.98;;;7.20;99.90;;;;;;4972549;28;20034;-61
2021/11/04 03:14:25;;;;;;;18.35;13.18;;;7.20;99.90;;;;;;4973487;28;20027;-61
2021/11/04 03:16:54;;;;;;;29.55;20.90;;;7.20;99.90;;;;;;4957298;28;20550;-61
2021/11/04 03:19:21;;;;;;;27.30;19.52;;;7.10;99.90;;;;;;4988306;28;20022;-62
2021/11/04 03:21:50;;;;;;;29.10;18.25;;;7.00;99.90;;;;;;4988736;28;20406;-62
2021/11/04 03:24:18;;;;;;;28.92;18.80;;;7.00;99.90;;;;;;4974022;28;20035;-62
2021/11/04 03:26:45;;;;;;;26.45;16.02;;;7.00;99.90;;;;;;4961876;28;20046;-62
2021/11/04 03:29:12;;;;;;;26.42;19.20;;;7.10;99.90;;;;;;4971928;28;20407;-62
2021/11/04 03:31:40;;;;;;;31.70;21.98;;;7.00;99.90;;;;;;4954629;28;20031;-62
2021/11/04 03:34:06;;;;;;;27.90;20.33;;;7.00;99.90;;;;;;4960731;28;20043;-61
2021/11/04 03:36:34;;;;;;;23.27;16.67;;;6.90;99.90;;;;;;4973903;28;20474;-61
2021/11/04 03:39:00;;;;;;;19.83;14.57;;;6.90;99.90;;;;;;4954062;28;20038;-61
2021/11/04 03:41:26;;;;;;;19.73;14.55;;;7.00;99.90;;;;;;4972174;28;20165;-62
2021/11/04 03:43:52;;;;;;;16.40;13.32;;;6.90;99.90;;;;;;4973120;28;20034;-62
2021/11/04 03:46:19;;;;;;;15.40;11.65;;;7.00;99.90;;;;;;4971441;28;20031;-62
2021/11/04 03:48:45;;;;;;;14.93;11.02;;;7.00;99.90;;;;;;4954570;28;20483;-62
2021/11/04 03:51:12;;;;;;;13.23;10.40;;;7.00;99.90;;;;;;4972593;28;20038;-61
2021/11/04 03:53:40;;;;;;;12.77;9.75;;;7.00;99.90;;;;;;4961747;28;20037;-62
2021/11/04 03:56:06;;;;;;;17.10;12.57;;;7.10;99.90;;;;;;4970566;28;20019;-62
2021/11/04 03:58:33;;;;;;;22.08;16.92;;;7.10;99.90;;;;;;4971445;28;20053;-61
2021/11/04 04:00:59;;;;;;;20.75;15.23;;;6.90;99.90;;;;;;4962510;28;20019;-62
2021/11/04 04:03:25;;;;;;;21.33;15.95;;;6.90;99.90;;;;;;4964400;28;20038;-62
2021/11/04 04:05:59;;;;;;;20.73;15.55;;;6.80;99.90;;;;;;4967008;28;20550;-62
2021/11/04 04:08:25;;;;;;;15.82;12.10;;;6.80;99.90;;;;;;4964329;28;20034;-62
2021/11/04 04:10:50;;;;;;;16.05;12.32;;;6.80;99.90;;;;;;4962344;28;20034;-62
2021/11/04 04:13:16;;;;;;;15.70;11.57;;;6.80;99.90;;;;;;4966000;28;20491;-62
2021/11/04 04:15:41;;;;;;;13.95;11.05;;;6.90;99.90;;;;;;4963213;28;20484;-63
2021/11/04 04:18:07;;;;;;;13.65;10.93;;;6.90;99.90;;;;;;4961166;28;20398;-62
2021/11/04 04:20:32;;;;;;;14.48;10.55;;;6.90;99.90;;;;;;4967037;28;20029;-62
2021/11/04 04:22:58;;;;;;;16.52;11.48;;;7.00;99.90;;;;;;4965409;28;20033;-62
2021/11/04 04:25:23;;;;;;;17.38;12.52;;;7.00;99.90;;;;;;4967357;28;20502;-62
2021/11/04 04:27:49;;;;;;;18.88;12.80;;;7.00;99.90;;;;;;4965357;28;20034;-62
2021/11/04 04:30:14;;;;;;;18.13;12.57;;;7.00;99.90;;;;;;4965253;28;20981;-62
2021/11/04 04:32:40;;;;;;;18.48;13.77;;;7.00;99.90;;;;;;4962721;28;20031;-62
2021/11/04 04:35:06;;;;;;;20.52;14.73;;;7.00;99.90;;;;;;4962999;28;20435;-62
2021/11/04 04:37:31;;;;;;;20.98;14.20;;;7.00;99.90;;;;;;4965073;28;20027;-62
2021/11/04 04:39:57;;;;;;;18.42;13.10;;;7.00;99.90;;;;;;4962063;28;20030;-62
2021/11/04 04:42:22;;;;;;;19.80;13.63;;;7.10;99.90;;;;;;4964397;28;20521;-62
2021/11/04 04:44:48;;;;;;;22.27;16.02;;;7.00;99.90;;;;;;4962915;28;20158;-61
2021/11/04 04:47:13;;;;;;;23.92;16.30;;;7.00;99.90;;;;;;4963265;28;20399;-61
2021/11/04 04:49:39;;;;;;;20.80;14.77;;;7.00;99.90;;;;;;4963788;28;20483;-62
2021/11/04 04:52:04;;;;;;;24.02;15.55;;;7.00;99.90;;;;;;4964320;28;20032;-62
2021/11/04 04:54:30;;;;;;;22.52;16.42;;;7.00;99.90;;;;;;4962928;28;20033;-61
2021/11/04 04:56:55;;;;;;;22.02;15.65;;;7.00;99.90;;;;;;4952596;28;20213;-61
2021/11/04 04:59:21;;;;;;;25.83;16.63;;;7.00;99.90;;;;;;4968171;28;20043;-61
2021/11/04 05:01:47;;;;;;;24.27;16.83;;;7.00;99.90;;;;;;4972834;28;20562;-61
2021/11/04 05:04:13;;;;;;;24.95;16.58;;;7.00;99.90;;;;;;4971909;28;20457;-61
2021/11/04 05:06:38;;;;;;;22.42;15.40;;;7.00;99.90;;;;;;4970690;28;20031;-61
2021/11/04 05:09:04;;;;;;;22.67;15.85;;;7.00;99.90;;;;;;4974626;28;20034;-61
2021/11/04 05:11:30;;;;;;;20.98;14.50;;;7.00;99.90;;;;;;4976416;28;20045;-61
2021/11/04 05:13:59;;;;;;;17.75;12.52;;;7.00;99.90;;;;;;4975531;28;20487;-61
2021/11/04 05:16:25;;;;;;;20.30;14.30;;;7.00;99.90;;;;;;4949513;28;20026;-62
2021/11/04 05:18:50;;;;;;;19.85;14.70;;;7.00;99.90;;;;;;4974587;28;20262;-61
2021/11/04 05:21:16;;;;;;;23.15;15.50;;;7.00;99.90;;;;;;4974375;28;20632;-61
2021/11/04 05:23:41;;;;;;;21.90;15.40;;;7.00;99.90;;;;;;4979062;28;20031;-62
2021/11/04 05:26:07;;;;;;;19.80;14.18;;;7.00;99.90;;;;;;4974431;28;20031;-62
2021/11/04 05:28:32;;;;;;;17.90;12.85;;;7.00;99.90;;;;;;4976516;28;20471;-61
2021/11/04 05:31:00;;;;;;;19.80;13.52;;;7.00;99.90;;;;;;4974564;28;20134;-61
2021/11/04 05:33:55;;;;;;;18.45;13.07;;;7.00;99.90;;;;;;4974281;28;20386;-61
2021/11/04 05:36:22;;;;;;;18.23;13.13;;;7.00;99.90;;;;;;4964228;28;20019;-62
2021/11/04 05:38:49;;;;;;;18.13;12.27;;;7.00;99.90;;;;;;4977449;28;20053;-61
2021/11/04 05:41:14;;;;;;;19.27;14.00;;;7.00;99.90;;;;;;4974978;28;20435;-61
2021/11/04 05:43:40;;;;;;;22.52;13.32;;;6.90;99.90;;;;;;4974929;28;20113;-62
2021/11/04 05:46:43;;;;;;;19.25;13.55;;;6.90;99.90;;;;;;4969892;28;20026;-61
2021/11/04 05:49:09;;;;;;;17.70;11.32;;;7.00;99.90;;;;;;4973566;28;20050;-61
2021/11/04 05:51:34;;;;;;;19.15;13.40;;;7.00;99.90;;;;;;4976758;28;20027;-61
2021/11/04 05:54:00;;;;;;;21.27;14.13;;;7.00;99.90;;;;;;4979121;28;20041;-61
2021/11/04 05:56:25;;;;;;;20.38;12.70;;;6.90;99.90;;;;;;4956754;28;20027;-62
2021/11/04 05:58:51;;;;;;;19.95;13.10;;;7.00;99.90;;;;;;4974509;28;20047;-61
2021/11/04 06:01:20;;;;;;;18.83;13.27;;;7.00;99.90;;;;;;4977266;28;20033;-61
2021/11/04 06:03:45;;;;;;;19.45;12.73;;;7.00;99.90;;;;;;4974141;28;20085;-62
2021/11/04 06:06:11;;;;;;;20.05;12.65;;;7.00;99.90;;;;;;4968082;28;20430;-62
2021/11/04 06:08:36;;;;;;;21.40;13.07;;;7.00;99.90;;;;;;4975830;28;20522;-61
2021/11/04 06:11:03;;;;;;;20.27;13.68;;;7.00;99.90;;;;;;4976457;28;20058;-62
2021/11/04 06:13:28;;;;;;;22.30;13.73;;;7.00;99.90;;;;;;4975165;28;20034;-62
2021/11/04 06:16:00;;;;;;;19.95;12.43;;;7.00;99.90;;;;;;4976075;28;20022;-61
2021/11/04 06:18:25;;;;;;;21.13;14.20;;;7.00;99.90;;;;;;4976169;28;20038;-61
2021/11/04 06:20:51;;;;;;;22.50;12.77;;;7.00;99.90;;;;;;4973855;28;20027;-61
2021/11/04 06:23:16;;;;;;;25.30;12.80;;;7.00;99.90;;;;;;4990143;28;20066;-61
2021/11/04 06:25:42;;;;;;;38.38;13.15;;;7.00;99.90;;;;;;4973440;28;20109;-61
2021/11/04 06:28:07;;;;;;;33.80;15.00;;;6.90;99.90;;;;;;4980354;28;20129;-61
2021/11/04 06:30:33;;;;;;;32.72;15.45;;;6.80;99.90;;;;;;4973034;28;20034;-62
2021/11/04 06:32:59;;;;;;;30.48;14.85;;;6.70;99.90;;;;;;4972836;28;20035;-61
2021/11/04 06:35:24;;;;;;;26.45;15.35;;;6.70;99.90;;;;;;4973093;28;20050;-62
2021/11/04 06:38:19;;;;;;;32.08;13.88;;;6.70;99.90;;;;;;4973121;28;20035;-61
2021/11/04 06:48:16;;;;;;;34.63;15.32;;;6.40;99.90;;;;;;4874257;29;20111;-61
2021/11/04 06:50:43;;;;;;;21.17;13.43;;;6.40;99.90;;;;;;4921241;29;20027;-62
2021/11/04 06:53:11;;;;;;;23.02;12.68;;;6.40;99.90;;;;;;4918759;29;20043;-62
2021/11/04 06:55:39;;;;;;;25.83;11.98;;;6.40;99.90;;;;;;4944371;28;20031;-61
2021/11/04 06:58:59;;;;;;;22.55;11.40;;;6.40;99.90;;;;;;4973687;28;20081;-61
2021/11/04 07:01:25;;;;;;;20.02;11.70;;;6.50;99.90;;;;;;4974103;28;20038;-62
2021/11/04 07:04:02;;;;;;;23.23;11.60;;;6.60;99.90;;;;;;4986915;28;20054;-61
2021/11/04 07:06:30;;;;;;;24.17;14.63;;;6.60;99.90;;;;;;4975415;28;20494;-61
2021/11/04 07:08:59;;;;;;;25.67;16.05;;;6.50;99.90;;;;;;4987980;28;20110;-62
2021/11/04 07:11:27;;;;;;;27.13;16.65;;;6.40;99.90;;;;;;4974373;28;20030;-61
2021/11/04 07:13:54;;;;;;;27.13;16.88;;;6.40;99.90;;;;;;4987592;28;20122;-61
2021/11/04 07:16:24;;;;;;;29.75;20.80;;;6.40;99.90;;;;;;4974940;28;20566;-61
2021/11/04 07:18:52;;;;;;;28.85;19.83;;;6.30;99.90;;;;;;4978052;28;20081;-62
2021/11/04 07:21:22;;;;;;;27.42;18.10;;;6.30;99.90;;;;;;4957963;28;20042;-61
2021/11/04 07:23:51;;;;;;;26.42;16.25;;;6.30;99.90;;;;;;4955742;28;20031;-61
2021/11/04 07:26:18;;;;;;;28.83;15.43;;;6.40;99.90;;;;;;4962287;28;20031;-61
2021/11/04 07:28:45;;;;;;;24.33;14.02;;;6.40;99.90;;;;;;4972171;28;20482;-61
2021/11/04 07:31:11;;;;;;;22.80;13.63;;;6.50;99.90;;;;;;4961974;28;20031;-61
2021/11/04 07:33:42;;;;;;;20.27;14.45;;;6.50;99.90;;;;;;4972223;28;20069;-63
2021/11/04 07:36:10;;;;;;;28.27;17.58;;;6.60;99.90;;;;;;4972200;28;20027;-61
2021/11/04 07:38:38;;;;;;;31.15;15.90;;;6.50;99.90;;;;;;4972037;28;20023;-62
2021/11/04 07:41:04;;;;;;;26.17;14.95;;;6.60;99.90;;;;;;4972058;28;20039;-61
2021/11/04 07:43:30;;;;;;;26.00;16.13;;;6.60;99.90;;;;;;4971916;28;20028;-62
2021/11/04 07:45:57;;;;;;;22.70;14.07;;;6.60;99.90;;;;;;4978837;28;20037;-61
2021/11/04 07:48:23;;;;;;;23.92;13.02;;;6.70;99.90;;;;;;4983536;28;20031;-61
2021/11/04 07:50:49;;;;;;;22.42;13.52;;;6.70;99.90;;;;;;4976870;28;20386;-61
2021/11/04 07:53:16;;;;;;;23.85;15.40;;;6.70;99.90;;;;;;4983802;28;20467;-61
2021/11/04 07:55:42;;;;;;;23.52;15.30;;;6.70;99.90;;;;;;4956757;28;20038;-62
2021/11/04 07:58:07;;;;;;;21.45;15.25;;;6.80;99.90;;;;;;4989867;28;20023;-61
2021/11/04 08:00:33;;;;;;;26.10;14.45;;;6.80;99.90;;;;;;4976602;28;20046;-61
2021/11/04 08:02:59;;;;;;;23.67;15.13;;;6.80;99.90;;;;;;4983526;28;20071;-62
2021/11/04 08:05:25;;;;;;;19.75;13.40;;;6.90;99.90;;;;;;4981779;28;20054;-61
2021/11/04 08:07:51;;;;;;;24.67;15.77;;;6.90;99.90;;;;;;4987407;28;20522;-61
2021/11/04 08:10:18;;;;;;;25.00;17.42;;;6.90;99.90;;;;;;4973433;28;20034;-62
2021/11/04 08:12:44;;;;;;;25.60;17.25;;;6.90;99.90;;;;;;4973440;28;20113;-61
2021/11/04 08:15:11;;;;;;;27.63;17.73;;;6.90;99.90;;;;;;4986694;28;20450;-61
2021/11/04 08:17:37;;;;;;;21.30;14.85;;;6.90;99.90;;;;;;4983328;28;20041;-61
2021/11/04 08:20:04;;;;;;;21.10;16.10;;;6.90;99.90;;;;;;4989021;28;20045;-61
2021/11/04 08:22:32;;;;;;;21.15;15.18;;;6.90;99.90;;;;;;4968369;28;20031;-63
2021/11/04 08:24:58;;;;;;;22.05;15.68;;;7.00;99.90;;;;;;4941765;28;20108;-62
2021/11/04 08:27:23;;;;;;;28.70;19.90;;;7.10;99.90;;;;;;4976252;28;20074;-61
2021/11/04 08:29:49;;;;;;;28.45;20.52;;;7.00;99.90;;;;;;4983145;28;20041;-61
2021/11/04 08:32:14;;;;;;;23.88;16.48;;;7.00;99.90;;;;;;4973246;28;20458;-61
2021/11/04 08:34:41;;;;;;;25.08;17.70;;;7.00;99.90;;;;;;4973206;28;20364;-62
2021/11/04 08:37:08;;;;;;;24.90;17.65;;;7.10;99.90;;;;;;4987325;28;20036;-62
2021/11/04 08:39:33;;;;;;;26.80;18.02;;;7.20;99.90;;;;;;4974827;28;20027;-61
2021/11/04 08:41:59;;;;;;;23.80;17.10;;;7.30;99.90;;;;;;4976645;28;20027;-62
2021/11/04 08:44:26;;;;;;;23.20;16.60;;;7.40;99.90;;;;;;4981350;28;20093;-62
2021/11/04 08:46:52;;;;;;;20.13;15.60;;;7.50;99.90;;;;;;4981107;28;20100;-62
2021/11/04 08:49:17;;;;;;;23.25;16.60;;;7.50;99.90;;;;;;4983326;28;20483;-62
2021/11/04 08:51:58;;;;;;;25.77;18.20;;;7.50;99.90;;;;;;4990367;28;20154;-62
2021/11/04 08:54:25;;;;;;;24.52;18.00;;;7.50;99.90;;;;;;4983702;28;20027;-61
2021/11/04 08:56:51;;;;;;;20.77;16.33;;;7.40;99.90;;;;;;4978436;28;20027;-62
2021/11/04 08:59:17;;;;;;;22.60;16.48;;;7.40;99.90;;;;;;4965333;28;20069;-62
2021/11/04 09:01:44;;;;;;;18.02;13.57;;;7.40;99.90;;;;;;4995448;28;20065;-62
2021/11/04 09:04:11;;;;;;;17.60;13.70;;;7.50;99.90;;;;;;4988853;28;20541;-62
2021/11/04 09:06:37;;;;;;;17.15;13.38;;;7.50;99.90;;;;;;4986494;28;20039;-62
2021/11/04 09:09:03;;;;;;;16.95;13.05;;;7.50;99.90;;;;;;4994973;28;20027;-62
2021/11/04 09:11:30;;;;;;;18.02;13.70;;;7.60;99.90;;;;;;4977380;28;20031;-61
2021/11/04 09:13:56;;;;;;;16.13;13.15;;;7.60;99.90;;;;;;4989074;28;20109;-62
2021/11/04 09:16:22;;;;;;;17.05;12.38;;;7.60;99.90;;;;;;4978128;28;20070;-62
2021/11/04 09:18:47;;;;;;;14.95;12.02;;;7.70;99.90;;;;;;4984719;28;20054;-62
2021/11/04 09:21:13;;;;;;;17.30;13.52;;;7.70;99.90;;;;;;4988947;28;20089;-61
2021/11/04 09:23:38;;;;;;;17.95;13.88;;;7.80;99.90;;;;;;4978763;28;20034;-62
2021/11/04 09:26:04;;;;;;;20.60;15.02;;;7.80;99.90;;;;;;4977718;28;20471;-62
2021/11/04 09:28:30;;;;;;;21.08;16.85;;;7.80;99.90;;;;;;4990143;28;20031;-61
2021/11/04 09:30:55;;;;;;;18.52;14.90;;;7.80;99.90;;;;;;4984722;28;20030;-62
2021/11/04 09:33:21;;;;;;;17.77;14.38;;;7.80;99.90;;;;;;4963866;28;20030;-62
2021/11/04 09:35:46;;;;;;;17.42;12.52;;;7.80;99.90;;;;;;4971736;28;20066;-62
2021/11/04 09:38:12;;;;;;;18.08;14.55;;;7.90;99.90;;;;;;4970982;28;20081;-62
2021/11/04 09:40:37;;;;;;;15.93;12.40;;;7.90;99.90;;;;;;4970830;28;20077;-61
2021/11/04 09:43:05;;;;;;;18.65;14.73;;;7.90;99.90;;;;;;4971073;28;20078;-62
2021/11/04 09:45:31;;;;;;;20.05;16.08;;;7.90;99.90;;;;;;4971575;28;20912;-61
2021/11/04 09:47:56;;;;;;;15.93;13.80;;;7.90;99.90;;;;;;4961120;28;20148;-62
2021/11/04 09:50:22;;;;;;;20.48;15.45;;;7.90;99.90;;;;;;4959025;28;20081;-62
2021/11/04 09:52:55;;;;;;;17.10;13.77;;;7.90;99.90;;;;;;4976246;28;20041;-62
2021/11/04 09:55:23;;;;;;;13.82;11.50;;;7.90;99.90;;;;;;4987698;28;20085;-62
2021/11/04 09:57:51;;;;;;;15.07;11.98;;;8.00;99.90;;;;;;4989718;28;20097;-62
2021/11/04 10:00:18;;;;;;;13.98;11.90;;;8.00;99.90;;;;;;4981610;28;20053;-62
2021/11/04 10:02:45;;;;;;;15.05;12.07;;;8.10;99.90;;;;;;4956350;28;20455;-62
2021/11/04 10:05:14;;;;;;;15.13;12.00;;;8.10;99.90;;;;;;4975067;28;20566;-62
2021/11/04 10:07:58;;;;;;;13.43;11.10;;;8.20;99.90;;;;;;4973974;28;20023;-62
2021/11/04 10:10:49;;;;;;;13.02;11.02;;;8.20;99.90;;;;;;4974442;28;20035;-62
2021/11/04 10:13:14;;;;;;;11.90;9.65;;;8.20;99.90;;;;;;4973550;28;20113;-62
2021/11/04 10:15:41;;;;;;;17.85;14.32;;;8.30;99.90;;;;;;4973018;28;20479;-62
2021/11/04 10:18:13;;;;;;;18.83;15.70;;;8.20;99.90;;;;;;4968421;28;20391;-62
2021/11/04 10:20:39;;;;;;;23.20;17.85;;;8.30;99.90;;;;;;4973825;28;20031;-62
2021/11/04 10:23:33;;;;;;;20.35;16.15;;;8.20;99.90;;;;;;4974684;28;20373;-62
2021/11/04 10:26:17;;;;;;;27.20;19.25;;;8.20;99.90;;;;;;4973904;28;20049;-62
2021/11/04 10:28:45;;;;;;;21.08;17.10;;;8.20;99.90;;;;;;4974643;28;20109;-62
2021/11/04 10:31:14;;;;;;;21.85;17.30;;;8.20;99.90;;;;;;4974497;28;20033;-62
2021/11/04 10:33:42;;;;;;;20.85;15.57;;;8.30;99.90;;;;;;4974725;28;20045;-62
2021/11/04 10:36:16;;;;;;;20.48;17.25;;;8.50;99.90;;;;;;4974435;28;20023;-62
2021/11/04 10:39:18;;;;;;;17.88;15.40;;;8.60;99.90;;;;;;4974087;28;20026;-62
2021/11/04 10:41:44;;;;;;;23.13;16.02;;;8.60;99.90;;;;;;4974041;28;20023;-61
2021/11/04 10:44:12;;;;;;;16.50;13.80;;;8.60;99.90;;;;;;4974307;28;20105;-62
2021/11/04 10:46:57;;;;;;;16.63;12.95;;;8.60;99.90;;;;;;4974474;28;20034;-62
2021/11/04 10:49:24;;;;;;;16.77;14.35;;;8.70;99.90;;;;;;4974283;28;20038;-61
2021/11/04 10:52:02;;;;;;;19.80;15.07;;;8.60;99.90;;;;;;4974375;28;20027;-61
2021/11/04 10:54:39;;;;;;;19.60;15.57;;;8.60;99.90;;;;;;4972518;28;20066;-61
2021/11/04 10:57:05;;;;;;;20.23;16.52;;;8.60;99.90;;;;;;4971308;28;20019;-61
2021/11/04 10:59:46;;;;;;;19.65;17.55;;;8.50;99.90;;;;;;4983220;28;20138;-61
2021/11/04 11:02:12;;;;;;;20.05;16.42;;;8.50;99.90;;;;;;4978007;28;20026;-61
2021/11/04 11:04:38;;;;;;;20.00;17.27;;;8.50;99.90;;;;;;4989951;28;20061;-61
2021/11/04 11:07:04;;;;;;;19.98;17.60;;;8.50;99.90;;;;;;4978946;28;20057;-61
2021/11/04 11:09:33;;;;;;;22.40;18.13;;;8.50;99.90;;;;;;4993264;28;20382;-61
2021/11/04 11:12:03;;;;;;;23.60;17.65;;;8.60;99.90;;;;;;4992618;28;20118;-62
2021/11/04 11:14:31;;;;;;;23.05;17.25;;;8.60;99.90;;;;;;4993333;28;20494;-61
2021/11/04 11:16:59;;;;;;;21.20;16.92;;;8.60;99.90;;;;;;4987504;28;20073;-61
2021/11/04 11:20:09;;;;;;;19.85;15.68;;;8.70;99.90;;;;;;4979506;28;20026;-61
2021/11/04 11:36:09;;;;;;;20.13;16.23;;;9.00;99.90;;;;;;4815533;29;20050;-62
2021/11/04 11:38:56;;;;;;;19.73;16.05;;;9.00;99.90;;;;;;4788429;29;20038;-61
2021/11/04 11:41:31;;;;;;;20.30;16.85;;;8.90;99.90;;;;;;4856678;29;20049;-62
2021/11/04 11:43:57;;;;;;;19.38;15.10;;;8.90;99.90;;;;;;4943299;28;21351;-62
2021/11/04 11:46:23;;;;;;;19.85;16.40;;;8.90;99.90;;;;;;4969234;28;20454;-62
2021/11/04 11:49:10;;;;;;;20.73;16.42;;;8.90;99.90;;;;;;4969709;28;20466;-62
2021/11/04 11:51:40;;;;;;;21.27;16.00;;;8.90;99.90;;;;;;4969580;28;20031;-62
2021/11/04 11:54:06;;;;;;;19.02;16.25;;;8.90;99.90;;;;;;4962563;28;20051;-62
2021/11/04 11:56:34;;;;;;;17.73;15.07;;;8.90;99.90;;;;;;4962317;28;20026;-61
2021/11/04 11:59:20;;;;;;;19.40;15.65;;;8.90;99.90;;;;;;4965951;28;20031;-61
2021/11/04 12:01:47;;;;;;;15.75;13.93;;;8.90;99.90;;;;;;4972294;28;20514;-61
2021/11/04 12:04:29;;;;;;;19.77;17.00;;;8.90;99.90;;;;;;4968353;28;20035;-61
2021/11/04 12:06:58;;;;;;;19.98;16.45;;;9.00;99.90;;;;;;4970376;28;20039;-62
2021/11/04 12:09:44;;;;;;;19.33;16.33;;;9.00;99.90;;;;;;4971619;28;20034;-62
2021/11/04 12:12:43;;;;;;;20.92;16.42;;;9.10;99.90;;;;;;4971568;28;20035;-61
2021/11/04 12:15:49;;;;;;;19.17;16.73;;;9.10;99.90;;;;;;4973947;28;20026;-61
2021/11/04 12:18:39;;;;;;;19.85;16.13;;;9.10;99.90;;;;;;4970936;28;20038;-61
2021/11/04 12:21:05;;;;;;;18.60;14.93;;;9.30;99.90;;;;;;4971312;28;20050;-61
2021/11/04 12:23:35;;;;;;;19.52;16.88;;;9.40;99.90;;;;;;4971426;28;20069;-61
2021/11/04 12:26:04;;;;;;;;;;;9.50;99.90;;;;;;4969602;28;20038;-61
2021/11/04 12:28:46;;;;;;;24.23;18.70;;;9.50;99.90;;;;;;4966888;28;19989;-62
2021/11/04 12:31:17;;;;;;;20.13;17.08;;;9.50;99.90;;;;;;4968388;28;20030;-61
2021/11/04 12:33:42;;;;;;;20.08;17.13;;;9.40;99.90;;;;;;4967969;28;20043;-61
2021/11/04 12:36:08;;;;;;;20.17;16.23;;;9.50;99.90;;;;;;4968185;28;20029;-61
2021/11/04 12:38:45;;;;;;;16.42;13.85;;;9.50;99.90;;;;;;4972044;28;20412;-62
2021/11/04 12:41:14;;;;;;;18.58;15.73;;;9.70;99.90;;;;;;4970232;28;20023;-62
2021/11/04 12:43:40;;;;;;;18.92;15.38;;;9.80;99.90;;;;;;4975127;28;20373;-61
2021/11/04 12:46:17;;;;;;;19.95;16.75;;;10.20;99.90;;;;;;4973443;28;20035;-62
2021/11/04 12:49:03;;;;;;;18.13;16.13;;;10.60;99.90;;;;;;4986705;28;20026;-62
2021/11/04 12:51:53;;;;;;;20.17;16.65;;;10.80;99.90;;;;;;4985113;28;20034;-61
2021/11/04 12:54:37;;;;;;;20.23;15.55;;;10.70;99.90;;;;;;4971987;28;20049;-62
2021/11/04 12:57:14;;;;;;;16.33;14.30;;;10.70;99.90;;;;;;4970957;28;20028;-62
2021/11/04 13:00:20;;;;;;;;;;;;;;;;;;;;;
2021/11/04 13:02:46;;;;;;;17.80;14.75;;;11.10;99.90;;;;;;4965898;28;20030;-61
2021/11/04 13:28:10;;;;;;;11.20;9.98;;;13.90;97.10;;;;;;4618516;31;20512;-62
2021/11/04 13:41:28;;;;;;;8.35;6.60;;;13.30;97.40;;;;;;4792313;29;20086;-62